createdAt,value
2023-02-16T00:00:50.004Z,35.67
2023-02-16T00:03:36.027Z,33.92
2023-02-16T00:06:21.757Z,34.67
2023-02-16T00:09:07.367Z,37.25
2023-02-16T00:12:13.282Z,37.30
2023-02-16T00:14:58.727Z,34.92
2023-02-16T00:17:44.630Z,34.40
2023-02-16T00:20:30.501Z,35.58
2023-02-16T00:23:16.201Z,33.75
2023-02-16T00:26:01.982Z,34.00
2023-02-16T00:28:52.048Z,35.10
2023-02-16T00:31:37.830Z,36.10
2023-02-16T00:34:32.745Z,35.42
2023-02-16T00:37:18.925Z,33.67
2023-02-16T00:40:04.886Z,35.42
2023-02-16T00:42:50.305Z,36.13
2023-02-16T00:45:38.087Z,33.70
2023-02-16T00:48:24.408Z,35.83
2023-02-16T00:51:25.221Z,36.22
2023-02-16T00:54:11.811Z,36.17
2023-02-16T00:56:57.984Z,37.70
2023-02-16T00:59:44.052Z,38.08
2023-02-16T01:02:30.940Z,35.38
2023-02-16T01:05:17.062Z,35.75
2023-02-16T01:08:25.032Z,37.05
2023-02-16T01:11:10.761Z,36.00
2023-02-16T01:13:59.532Z,35.50
2023-02-16T01:16:45.836Z,36.35
2023-02-16T01:19:32.867Z,36.17
2023-02-16T01:22:18.780Z,36.00
2023-02-16T01:25:04.985Z,36.90
2023-02-16T01:27:50.507Z,34.60
2023-02-16T01:30:36.010Z,34.05
2023-02-16T01:33:22.023Z,36.42
2023-02-16T01:36:19.859Z,36.92
2023-02-16T01:39:05.862Z,35.08
2023-02-16T01:42:02.512Z,36.33
2023-02-16T01:44:51.103Z,35.50
2023-02-16T01:47:41.733Z,35.97
2023-02-16T01:50:34.238Z,26.65
2023-02-16T01:53:26.743Z,36.15
2023-02-16T01:56:24.436Z,36.60
2023-02-16T01:59:17.707Z,36.58
2023-02-16T02:02:05.655Z,35.92
2023-02-16T02:05:15.768Z,38.10
2023-02-16T02:08:07.496Z,37.78
2023-02-16T02:11:05.852Z,36.58
2023-02-16T02:13:57.898Z,37.00
2023-02-16T02:16:55.033Z,37.17
2023-02-16T02:19:49.415Z,35.40
2023-02-16T02:23:24.577Z,37.10
2023-02-16T02:26:56.234Z,35.78
2023-02-16T02:30:08.098Z,38.35
2023-02-16T02:33:10.647Z,34.80
2023-02-16T02:36:08.602Z,35.47
2023-02-16T02:39:04.356Z,35.90
2023-02-16T02:42:06.916Z,36.00
2023-02-16T02:45:14.149Z,35.70
2023-02-16T02:48:00.026Z,37.00
2023-02-16T02:51:09.811Z,35.40
2023-02-16T02:54:18.735Z,37.20
2023-02-16T02:57:31.437Z,35.90
2023-02-16T03:00:40.081Z,35.33
2023-02-16T03:03:32.189Z,34.78
2023-02-16T03:06:23.638Z,36.05
2023-02-16T03:09:12.160Z,36.58
2023-02-16T03:12:18.610Z,35.75
2023-02-16T03:15:06.521Z,35.42
2023-02-16T03:18:13.928Z,36.03
2023-02-16T03:21:18.754Z,36.03
2023-02-16T03:24:27.210Z,36.83
2023-02-16T03:27:32.797Z,34.58
2023-02-16T03:30:21.034Z,34.53
2023-02-16T03:33:06.960Z,36.63
2023-02-16T03:35:53.418Z,36.17
2023-02-16T03:38:39.438Z,36.70
2023-02-16T03:41:25.859Z,37.47
2023-02-16T03:44:11.225Z,36.42
2023-02-16T03:46:58.109Z,37.80
2023-02-16T03:49:43.562Z,37.75
2023-02-16T03:52:29.111Z,37.38
2023-02-16T03:55:15.323Z,38.05
2023-02-16T03:58:01.072Z,37.95
2023-02-16T04:00:46.940Z,39.97
2023-02-16T04:03:34.237Z,39.03
2023-02-16T04:06:20.062Z,38.75
2023-02-16T04:09:05.688Z,37.08
2023-02-16T04:12:09.673Z,37.22
2023-02-16T04:14:55.283Z,36.00
2023-02-16T04:17:40.700Z,37.38
2023-02-16T04:20:32.063Z,37.58
2023-02-16T04:23:17.836Z,35.90
2023-02-16T04:26:03.627Z,37.88
2023-02-16T04:28:49.299Z,36.42
2023-02-16T04:31:35.114Z,35.90
2023-02-16T04:34:20.731Z,36.72
2023-02-16T04:37:07.818Z,37.10
2023-02-16T04:39:53.948Z,36.65
2023-02-16T04:42:39.754Z,37.97
2023-02-16T04:45:25.301Z,37.03
2023-02-16T04:48:10.820Z,39.15
2023-02-16T04:50:56.556Z,38.25
2023-02-16T04:53:43.508Z,36.95
2023-02-16T04:56:29.454Z,37.15
2023-02-16T04:59:16.135Z,38.53
2023-02-16T05:02:01.885Z,39.72
2023-02-16T05:04:47.798Z,37.72
2023-02-16T05:07:33.517Z,38.33
2023-02-16T05:10:20.673Z,38.03
2023-02-16T05:13:24.481Z,38.88
2023-02-16T05:16:11.557Z,38.05
2023-02-16T05:18:58.917Z,38.60
2023-02-16T05:21:44.565Z,37.88
2023-02-16T05:24:30.381Z,38.00
2023-02-16T05:27:19.291Z,38.97
2023-02-16T05:30:05.841Z,38.83
2023-02-16T05:32:51.344Z,38.45
2023-02-16T05:35:36.987Z,38.90
2023-02-16T05:38:22.654Z,38.03
2023-02-16T05:41:08.177Z,38.85
2023-02-16T05:43:57.325Z,39.47
2023-02-16T05:46:43.448Z,38.33
2023-02-16T05:49:29.344Z,39.80
2023-02-16T05:52:15.214Z,37.33
2023-02-16T05:55:00.841Z,38.53
2023-02-16T05:57:46.293Z,38.85
2023-02-16T06:00:33.722Z,39.33
2023-02-16T06:03:19.413Z,38.92
2023-02-16T06:06:06.155Z,39.72
2023-02-16T06:08:52.053Z,39.20
2023-02-16T06:11:37.812Z,39.47
2023-02-16T06:14:23.965Z,37.50
2023-02-16T06:17:11.130Z,40.03
2023-02-16T06:19:57.079Z,38.95
2023-02-16T06:22:42.436Z,39.47
2023-02-16T06:25:28.172Z,39.08
2023-02-16T06:28:13.995Z,40.15
2023-02-16T06:30:59.774Z,39.53
2023-02-16T06:33:47.801Z,39.88
2023-02-16T06:36:34.477Z,38.17
2023-02-16T06:39:20.398Z,39.60
2023-02-16T06:42:06.317Z,37.80
2023-02-16T06:44:52.037Z,37.58
2023-02-16T06:47:38.369Z,38.03
2023-02-16T06:50:25.592Z,38.92
2023-02-16T06:53:11.747Z,37.83
2023-02-16T06:55:57.341Z,38.40
2023-02-16T06:58:42.946Z,39.15
2023-02-16T07:01:28.971Z,37.38
2023-02-16T07:04:15.160Z,38.42
2023-02-16T07:07:02.744Z,38.15
2023-02-16T07:09:48.284Z,39.30
2023-02-16T07:12:34.155Z,37.17
2023-02-16T07:15:19.932Z,37.03
2023-02-16T07:18:06.082Z,35.72
2023-02-16T07:20:51.999Z,37.92
2023-02-16T07:23:41.582Z,38.30
2023-02-16T07:26:27.228Z,38.40
2023-02-16T07:29:12.823Z,37.67
2023-02-16T07:31:58.978Z,36.90
2023-02-16T07:34:45.786Z,37.10
2023-02-16T07:37:31.310Z,39.50
2023-02-16T07:40:18.363Z,37.30
2023-02-16T07:43:05.944Z,36.60
2023-02-16T07:45:52.106Z,37.85
2023-02-16T07:48:38.256Z,37.17
2023-02-16T07:51:24.621Z,38.63
2023-02-16T07:54:10.660Z,36.30
2023-02-16T07:56:57.793Z,37.50
2023-02-16T07:59:43.884Z,36.08
2023-02-16T08:02:29.802Z,35.50
2023-02-16T08:05:15.952Z,36.22
2023-02-16T08:08:01.896Z,34.45
2023-02-16T08:10:47.846Z,36.30
2023-02-16T08:13:38.062Z,35.22
2023-02-16T08:16:25.656Z,34.88
2023-02-16T08:19:13.151Z,34.67
2023-02-16T08:21:59.807Z,37.35
2023-02-16T08:24:45.656Z,36.85
2023-02-16T08:27:31.398Z,35.95
2023-02-16T08:30:20.554Z,35.72
2023-02-16T08:33:06.502Z,35.83
2023-02-16T08:35:52.422Z,33.75
2023-02-16T08:38:37.916Z,34.58
2023-02-16T08:41:28.302Z,35.10
2023-02-16T08:44:17.358Z,35.42
2023-02-16T08:47:04.468Z,35.35
2023-02-16T08:49:50.224Z,34.13
2023-02-16T08:52:36.246Z,34.13
2023-02-16T08:55:22.974Z,34.47
2023-02-16T08:58:08.415Z,35.42
2023-02-16T09:00:54.451Z,34.63
2023-02-16T09:03:43.278Z,34.55
2023-02-16T09:06:29.290Z,36.10
2023-02-16T09:09:15.319Z,35.75
2023-02-16T09:12:01.746Z,36.15
2023-02-16T09:14:47.296Z,34.83
2023-02-16T09:17:33.097Z,36.10
2023-02-16T09:20:27.600Z,35.36
2023-02-16T09:23:16.531Z,34.15
2023-02-16T09:26:03.096Z,38.67
2023-02-16T09:28:50.551Z,35.53
2023-02-16T09:31:37.447Z,38.00
2023-02-16T09:34:23.689Z,37.85
2023-02-16T09:37:10.861Z,37.55
2023-02-16T09:39:57.104Z,37.92
2023-02-16T09:42:54.152Z,39.60
2023-02-16T09:45:43.461Z,39.35
2023-02-16T09:48:35.928Z,38.22
2023-02-16T09:51:33.862Z,40.20
2023-02-16T09:54:32.571Z,40.80
2023-02-16T09:57:23.731Z,39.55
2023-02-16T10:00:23.375Z,41.65
2023-02-16T10:03:26.979Z,41.22
2023-02-16T10:06:28.287Z,41.60
2023-02-16T10:09:17.218Z,42.00
2023-02-16T10:12:09.461Z,41.55
2023-02-16T10:15:00.422Z,47.03
2023-02-16T10:17:48.909Z,46.83
2023-02-16T10:20:37.595Z,42.75
2023-02-16T10:23:45.233Z,42.25
2023-02-16T10:26:35.308Z,42.42
2023-02-16T10:29:23.972Z,41.08
2023-02-16T10:32:19.196Z,43.03
2023-02-16T10:35:15.126Z,44.00
2023-02-16T10:38:07.528Z,45.17
2023-02-16T10:40:56.508Z,44.65
2023-02-16T10:43:46.854Z,45.90
2023-02-16T10:46:40.037Z,45.50
2023-02-16T10:49:27.008Z,43.40
2023-02-16T10:52:13.007Z,46.25
2023-02-16T10:54:58.639Z,45.78
2023-02-16T10:57:50.695Z,46.97
2023-02-16T11:00:51.760Z,45.38
2023-02-16T11:03:44.994Z,44.47
2023-02-16T11:06:30.985Z,44.45
2023-02-16T11:09:16.931Z,46.03
2023-02-16T11:12:13.753Z,46.42
2023-02-16T11:15:03.561Z,45.50
2023-02-16T11:17:51.419Z,44.97
2023-02-16T11:20:53.098Z,46.45
2023-02-16T11:23:40.540Z,45.58
2023-02-16T11:26:26.976Z,46.47
2023-02-16T11:29:22.285Z,46.47
2023-02-16T11:32:10.382Z,48.20
2023-02-16T11:34:56.135Z,46.42
2023-02-16T11:37:43.326Z,43.78
2023-02-16T11:40:31.752Z,45.28
2023-02-16T11:43:18.647Z,43.55
2023-02-16T11:46:09.969Z,43.35
2023-02-16T11:51:41.845Z,41.53
2023-02-16T11:54:28.724Z,41.17
2023-02-16T11:57:15.853Z,39.97
2023-02-16T12:00:15.753Z,36.97
2023-02-16T12:03:19.093Z,37.17
2023-02-16T12:06:18.515Z,35.90
2023-02-16T12:09:19.629Z,36.20
2023-02-16T12:12:14.714Z,36.20
2023-02-16T12:15:12.873Z,35.67
2023-02-16T12:18:22.893Z,35.63
2023-02-16T12:21:20.569Z,34.80
2023-02-16T12:24:21.951Z,31.92
2023-02-16T12:27:17.650Z,33.78
2023-02-16T12:30:13.212Z,35.17
2023-02-16T12:33:08.328Z,33.45
2023-02-16T12:36:04.828Z,32.63
2023-02-16T12:39:02.769Z,32.58
2023-02-16T12:42:00.633Z,33.17
2023-02-16T12:44:51.017Z,34.05
2023-02-16T12:47:42.441Z,31.73
2023-02-16T12:50:31.010Z,31.23
2023-02-16T12:53:22.806Z,32.90
2023-02-16T12:56:12.643Z,32.72
2023-02-16T12:59:07.383Z,31.63
2023-02-16T13:01:56.467Z,30.33
2023-02-16T13:04:45.771Z,29.00
2023-02-16T13:07:35.442Z,28.33
2023-02-16T13:10:24.457Z,28.83
2023-02-16T13:13:15.314Z,28.27
2023-02-16T13:18:56.154Z,26.42
2023-02-16T13:22:04.601Z,27.85
2023-02-16T13:25:05.426Z,25.15
2023-02-16T13:28:03.367Z,25.73
2023-02-16T13:31:05.625Z,27.30
2023-02-16T13:34:11.975Z,25.98
2023-02-16T13:37:18.149Z,26.80
2023-02-16T13:40:27.391Z,26.85
2023-02-16T13:43:22.287Z,26.75
2023-02-16T13:46:15.563Z,26.27
2023-02-16T13:49:03.408Z,25.15
2023-02-16T13:51:49.969Z,26.60
2023-02-16T13:54:39.918Z,24.73
2023-02-16T13:58:02.302Z,25.73
2023-02-16T14:00:48.971Z,27.27
2023-02-16T14:03:38.071Z,25.90
2023-02-16T14:06:37.012Z,25.25
2023-02-16T14:09:45.922Z,25.35
2023-02-16T14:12:36.893Z,24.40
2023-02-16T14:15:22.815Z,24.85
2023-02-16T14:18:21.524Z,23.20
2023-02-16T14:21:18.267Z,23.23
2023-02-16T14:24:10.887Z,22.50
2023-02-16T14:27:01.676Z,21.83
2023-02-16T14:29:56.698Z,22.52
2023-02-16T14:32:48.935Z,21.40
2023-02-16T14:35:37.186Z,21.83
2023-02-16T14:38:27.116Z,22.42
2023-02-16T14:41:25.855Z,21.05
2023-02-16T14:44:34.059Z,20.98
2023-02-16T14:47:31.970Z,21.25
2023-02-16T14:50:29.232Z,20.88
2023-02-16T14:53:37.579Z,20.50
2023-02-16T14:56:38.408Z,20.65
2023-02-16T14:59:31.750Z,20.65
2023-02-16T15:02:27.008Z,20.77
2023-02-16T15:05:17.827Z,20.98
2023-02-16T15:08:11.411Z,21.02
2023-02-16T15:10:57.160Z,19.70
2023-02-16T15:13:45.132Z,20.27
2023-02-16T15:16:32.872Z,19.90
2023-02-16T15:19:29.599Z,18.48
2023-02-16T15:22:20.031Z,19.40
2023-02-16T15:25:19.952Z,19.40
2023-02-16T15:28:18.899Z,19.02
2023-02-16T15:31:10.794Z,19.77
2023-02-16T15:33:58.348Z,18.80
2023-02-16T15:36:45.244Z,17.98
2023-02-16T15:39:43.641Z,18.48
2023-02-16T15:42:35.476Z,18.90
2023-02-16T15:45:39.585Z,18.05
2023-02-16T15:48:30.163Z,18.83
2023-02-16T15:51:19.888Z,19.20
2023-02-16T15:54:07.952Z,18.75
2023-02-16T15:56:55.582Z,18.80
2023-02-16T15:59:47.525Z,18.65
2023-02-16T16:02:36.582Z,19.27
2023-02-16T16:05:27.513Z,20.08
2023-02-16T16:08:14.662Z,19.83
2023-02-16T16:11:01.129Z,19.00
2023-02-16T16:13:47.066Z,20.13
2023-02-16T16:16:33.871Z,19.77
2023-02-16T16:19:21.338Z,19.73
2023-02-16T16:22:30.299Z,20.42
2023-02-16T16:25:39.618Z,20.73
2023-02-16T16:28:38.184Z,23.13
2023-02-16T16:31:41.186Z,22.10
2023-02-16T16:34:38.102Z,23.10
2023-02-16T16:37:28.914Z,24.15
2023-02-16T16:40:22.741Z,23.45
2023-02-16T16:43:17.422Z,25.08
2023-02-16T16:46:13.727Z,26.35
2023-02-16T16:49:03.530Z,27.05
2023-02-16T16:51:52.792Z,27.45
2023-02-16T16:54:40.565Z,26.65
2023-02-16T16:57:26.241Z,29.13
2023-02-16T17:00:13.212Z,29.27
2023-02-16T17:02:59.181Z,31.05
2023-02-16T17:05:48.934Z,32.15
2023-02-16T17:08:35.201Z,31.15
2023-02-16T17:11:25.740Z,31.80
2023-02-16T17:14:16.769Z,33.80
2023-02-16T17:17:02.668Z,34.03
2023-02-16T17:19:48.416Z,31.92
2023-02-16T17:22:34.081Z,34.63
2023-02-16T17:25:20.246Z,33.25
2023-02-16T17:28:07.732Z,32.20
2023-02-16T17:30:53.786Z,33.50
2023-02-16T17:33:39.498Z,35.15
2023-02-16T17:36:27.290Z,34.53
2023-02-16T17:39:13.453Z,35.08
2023-02-16T17:41:59.405Z,33.65
2023-02-16T17:44:46.824Z,35.85
2023-02-16T17:47:32.334Z,35.60
2023-02-16T17:50:19.792Z,36.97
2023-02-16T17:53:11.721Z,36.55
2023-02-16T17:55:58.103Z,37.03
2023-02-16T17:58:44.640Z,36.90
2023-02-16T18:01:33.013Z,36.28
2023-02-16T18:04:18.749Z,38.47
2023-02-16T18:07:04.436Z,35.70
2023-02-16T18:09:50.253Z,37.25
2023-02-16T18:12:35.778Z,37.20
2023-02-16T18:15:21.368Z,37.75
2023-02-16T18:18:21.062Z,38.03
2023-02-16T18:21:07.552Z,37.55
2023-02-16T18:23:56.821Z,38.00
2023-02-16T18:26:42.738Z,37.97
2023-02-16T18:29:28.473Z,38.72
2023-02-16T18:32:14.379Z,39.15
2023-02-16T18:35:01.716Z,39.75
2023-02-16T18:37:47.660Z,37.85
2023-02-16T18:40:33.435Z,41.25
2023-02-16T18:43:19.863Z,40.10
2023-02-16T18:46:06.974Z,38.65
2023-02-16T18:48:53.002Z,38.65
2023-02-16T18:51:40.228Z,40.42
2023-02-16T18:54:26.301Z,39.35
2023-02-16T18:57:12.560Z,41.08
2023-02-16T18:59:59.242Z,40.08
2023-02-16T19:02:44.961Z,42.03
2023-02-16T19:05:31.077Z,41.20
2023-02-16T19:08:18.563Z,43.03
2023-02-16T19:11:04.612Z,42.65
2023-02-16T19:13:50.651Z,41.50
2023-02-16T19:16:36.611Z,42.47
2023-02-16T19:19:22.525Z,41.97
2023-02-16T19:22:08.300Z,40.40
2023-02-16T19:24:55.158Z,41.47
2023-02-16T19:27:41.018Z,42.80
2023-02-16T19:30:26.943Z,43.13
2023-02-16T19:33:12.816Z,41.67
2023-02-16T19:36:04.101Z,42.85
2023-02-16T19:38:50.181Z,41.55
2023-02-16T19:41:39.321Z,41.60
2023-02-16T19:44:24.847Z,42.20
2023-02-16T19:47:11.221Z,42.80
2023-02-16T19:49:57.317Z,42.55
2023-02-16T19:52:42.980Z,43.38
2023-02-16T19:55:29.065Z,41.42
2023-02-16T19:58:16.070Z,42.85
2023-02-16T20:01:06.943Z,42.08
2023-02-16T20:03:54.454Z,40.70
2023-02-16T20:06:41.946Z,44.58
2023-02-16T20:09:28.094Z,42.05
2023-02-16T20:12:13.996Z,43.95
2023-02-16T20:15:01.285Z,44.80
2023-02-16T20:17:46.956Z,42.13
2023-02-16T20:20:33.580Z,43.38
2023-02-16T20:23:19.994Z,42.58
2023-02-16T20:26:07.403Z,43.03
2023-02-16T20:28:54.108Z,44.58
2023-02-16T20:31:50.718Z,46.03
2023-02-16T20:34:36.903Z,44.95
2023-02-16T20:37:22.849Z,43.50
2023-02-16T20:40:09.604Z,43.95
2023-02-16T20:42:55.700Z,43.53
2023-02-16T20:45:42.961Z,44.70
2023-02-16T20:48:29.864Z,43.00
2023-02-16T20:51:18.523Z,44.95
2023-02-16T20:54:05.193Z,44.97
2023-02-16T20:56:50.645Z,43.55
2023-02-16T20:59:37.746Z,44.03
2023-02-16T21:02:23.573Z,45.63
2023-02-16T21:05:11.261Z,45.10
2023-02-16T21:07:57.091Z,45.60
2023-02-16T21:10:42.733Z,46.08
2023-02-16T21:13:28.410Z,45.10
2023-02-16T21:16:14.793Z,44.42
2023-02-16T21:19:00.729Z,40.95
2023-02-16T21:21:47.792Z,41.47
2023-02-16T21:24:33.666Z,40.53
2023-02-16T21:27:19.719Z,41.05
2023-02-16T21:30:07.379Z,39.63
2023-02-16T21:32:53.282Z,39.42
2023-02-16T21:35:39.201Z,37.83
2023-02-16T21:38:26.538Z,35.70
2023-02-16T21:41:25.189Z,33.00
2023-02-16T21:44:13.098Z,30.40
2023-02-16T21:46:58.910Z,29.33
2023-02-16T21:49:46.384Z,27.13
2023-02-16T21:52:32.091Z,27.83
2023-02-16T21:55:38.368Z,26.42
2023-02-16T21:58:30.075Z,23.58
2023-02-16T22:04:06.524Z,22.88
2023-02-16T22:06:52.305Z,22.35
2023-02-16T22:09:37.902Z,21.20
2023-02-16T22:12:24.847Z,23.13
2023-02-16T22:15:10.819Z,20.95
2023-02-16T22:17:56.579Z,22.50
2023-02-16T22:20:42.110Z,21.58
2023-02-16T22:23:28.100Z,21.55
2023-02-16T22:26:21.716Z,20.02
2023-02-16T22:29:09.886Z,17.83
2023-02-16T22:31:55.733Z,18.08
2023-02-16T22:34:41.583Z,15.90
2023-02-16T22:37:27.328Z,15.23
2023-02-16T22:40:13.265Z,15.00
2023-02-16T22:42:58.947Z,14.93
2023-02-16T22:45:45.915Z,13.82
2023-02-16T22:48:31.616Z,14.90
2023-02-16T22:51:18.134Z,15.63
2023-02-16T22:54:05.529Z,14.57
2023-02-16T22:56:51.276Z,15.00
2023-02-16T22:59:37.089Z,14.88
2023-02-16T23:02:24.290Z,14.32
2023-02-16T23:05:09.940Z,14.65
2023-02-16T23:07:55.791Z,16.95
2023-02-16T23:10:41.772Z,16.70
2023-02-16T23:13:28.539Z,17.33
2023-02-16T23:16:17.339Z,17.65
2023-02-16T23:19:04.483Z,17.48
2023-02-16T23:21:50.452Z,16.38
2023-02-16T23:24:36.347Z,16.17
2023-02-16T23:27:22.026Z,17.25
2023-02-16T23:30:08.130Z,16.13
2023-02-16T23:32:54.237Z,17.33
2023-02-16T23:35:42.164Z,17.00
2023-02-16T23:38:27.884Z,15.65
2023-02-16T23:41:14.867Z,16.27
2023-02-16T23:44:01.311Z,15.98
2023-02-16T23:46:46.740Z,15.77
2023-02-16T23:49:32.367Z,15.32
2023-02-16T23:52:19.281Z,15.98
2023-02-16T23:55:05.862Z,15.40
2023-02-16T23:57:51.450Z,15.77
